BAW8DS EGPH-EGKK
Flight info
| Callsign | BAW8DS |
|---|---|
| Flight time | 1h 11m |
| Altitude | 33000 |
| Route | GOSAM P600 FENIK L612 NAVSO DCT ADZOP DCT EGTOC DCT KEPAD L151 DISIT |
| Aircraft | A320/M-SDE3FGHIRWY/LB1 |
Departure
| Time | 2026-05-05 19:14 |
|---|---|
| Airport | Edinburgh Airport (EGPH) |
Arrival
| Time | 2026-05-05 20:26 |
|---|---|
| Airport | London Gatwick Airport (EGKK) |
| Time | Latitude | Longitude | Altitude | Speed | Heading |
|---|---|---|---|---|---|
| 2026-05-05 18:55 | 55.94704 | -3.36600 | 107 ft | 0 kts | 88° |
| 2026-05-05 19:06 | 55.94704 | -3.36603 | 106 ft | 2 kts | 88° |
| 2026-05-05 19:06 | 55.94703 | -3.36648 | 106 ft | 4 kts | 88° |
| 2026-05-05 19:06 | 55.94700 | -3.36696 | 106 ft | 4 kts | 69° |
| 2026-05-05 19:07 | 55.94686 | -3.36731 | 105 ft | 4 kts | 20° |
| 2026-05-05 19:07 | 55.94676 | -3.36735 | 106 ft | 0 kts | 359° |
| 2026-05-05 19:09 | 55.94678 | -3.36735 | 106 ft | 1 kts | 359° |
| 2026-05-05 19:09 | 55.94693 | -3.36735 | 106 ft | 4 kts | 359° |
| 2026-05-05 19:09 | 55.94741 | -3.36741 | 105 ft | 10 kts | 347° |
| 2026-05-05 19:10 | 55.94821 | -3.36778 | 105 ft | 14 kts | 359° |
| 2026-05-05 19:10 | 55.94907 | -3.36815 | 105 ft | 11 kts | 329° |
| 2026-05-05 19:10 | 55.94908 | -3.36946 | 104 ft | 15 kts | 240° |
| 2026-05-05 19:10 | 55.94850 | -3.37118 | 105 ft | 18 kts | 239° |
| 2026-05-05 19:11 | 55.94780 | -3.37327 | 107 ft | 21 kts | 239° |
| 2026-05-05 19:11 | 55.94704 | -3.37554 | 110 ft | 22 kts | 238° |
| 2026-05-05 19:11 | 55.94619 | -3.37802 | 111 ft | 25 kts | 239° |
| 2026-05-05 19:11 | 55.94520 | -3.38092 | 111 ft | 30 kts | 239° |
| 2026-05-05 19:12 | 55.94414 | -3.38402 | 112 ft | 25 kts | 237° |
| 2026-05-05 19:12 | 55.94328 | -3.38660 | 118 ft | 20 kts | 239° |
| 2026-05-05 19:12 | 55.94283 | -3.38846 | 120 ft | 11 kts | 296° |
| 2026-05-05 19:12 | 55.94319 | -3.38903 | 118 ft | 1 kts | 335° |
| 2026-05-05 19:13 | 55.94354 | -3.38936 | 116 ft | 13 kts | 329° |
| 2026-05-05 19:13 | 55.94440 | -3.38890 | 117 ft | 16 kts | 57° |
| 2026-05-05 19:13 | 55.94541 | -3.38599 | 114 ft | 55 kts | 59° |
| 2026-05-05 19:13 | 55.94847 | -3.37697 | 113 ft | 111 kts | 58° |
| 2026-05-05 19:14 | 55.95331 | -3.36250 | 224 ft | 152 kts | 61° |
| 2026-05-05 19:14 | 55.95869 | -3.34646 | 1090 ft | 150 kts | 60° |
| 2026-05-05 19:14 | 55.96590 | -3.33183 | 1784 ft | 174 kts | 44° |
| 2026-05-05 19:14 | 55.97538 | -3.31703 | 2299 ft | 189 kts | 44° |
| 2026-05-05 19:15 | 55.98594 | -3.30073 | 2557 ft | 214 kts | 43° |
| 2026-05-05 19:15 | 55.99853 | -3.28396 | 2961 ft | 237 kts | 27° |
| 2026-05-05 19:15 | 56.01507 | -3.27775 | 3689 ft | 252 kts | 359° |
| 2026-05-05 19:15 | 56.03174 | -3.28806 | 4598 ft | 261 kts | 326° |
| 2026-05-05 19:16 | 56.04308 | -3.31289 | 5533 ft | 269 kts | 296° |
| 2026-05-05 19:16 | 56.04577 | -3.34572 | 5900 ft | 271 kts | 262° |
| 2026-05-05 19:16 | 56.03773 | -3.37589 | 6065 ft | 277 kts | 226° |
| 2026-05-05 19:16 | 56.02139 | -3.39600 | 6509 ft | 298 kts | 220° |
| 2026-05-05 19:17 | 56.00931 | -3.42592 | 6923 ft | 306 kts | 257° |
| 2026-05-05 19:17 | 56.00934 | -3.46377 | 7573 ft | 304 kts | 290° |
| 2026-05-05 19:17 | 56.01629 | -3.49797 | 8938 ft | 288 kts | 278° |
| 2026-05-05 19:17 | 56.01331 | -3.53277 | 10020 ft | 289 kts | 250° |
| 2026-05-05 19:18 | 56.00418 | -3.56517 | 10633 ft | 298 kts | 244° |
| 2026-05-05 19:18 | 55.99486 | -3.59921 | 10967 ft | 312 kts | 257° |
| 2026-05-05 19:18 | 55.99368 | -3.63850 | 11116 ft | 328 kts | 278° |
| 2026-05-05 19:18 | 55.99426 | -3.67974 | 11658 ft | 337 kts | 265° |
| 2026-05-05 19:19 | 55.98896 | -3.72098 | 12268 ft | 343 kts | 255° |
| 2026-05-05 19:19 | 55.98156 | -3.76131 | 13090 ft | 343 kts | 254° |
| 2026-05-05 19:19 | 55.97396 | -3.80229 | 13591 ft | 351 kts | 252° |
| 2026-05-05 19:19 | 55.96544 | -3.84333 | 14209 ft | 355 kts | 251° |
| 2026-05-05 19:20 | 55.95672 | -3.88475 | 14783 ft | 358 kts | 251° |
| 2026-05-05 19:20 | 55.94795 | -3.92646 | 15351 ft | 360 kts | 252° |
| 2026-05-05 19:20 | 55.94184 | -3.96976 | 15895 ft | 362 kts | 262° |
| 2026-05-05 19:20 | 55.93513 | -4.01310 | 16456 ft | 368 kts | 245° |
| 2026-05-05 19:21 | 55.91893 | -4.04874 | 17012 ft | 378 kts | 220° |
| 2026-05-05 19:21 | 55.89622 | -4.07325 | 17606 ft | 384 kts | 212° |
| 2026-05-05 19:21 | 55.87308 | -4.09741 | 18221 ft | 386 kts | 214° |
| 2026-05-05 19:21 | 55.85038 | -4.12317 | 18785 ft | 388 kts | 216° |
| 2026-05-05 19:22 | 55.82715 | -4.14819 | 19326 ft | 394 kts | 209° |
| 2026-05-05 19:22 | 55.80168 | -4.16532 | 19860 ft | 401 kts | 197° |
| 2026-05-05 19:22 | 55.77379 | -4.17179 | 20387 ft | 409 kts | 183° |
| 2026-05-05 19:22 | 55.74531 | -4.16596 | 20900 ft | 417 kts | 169° |
| 2026-05-05 19:23 | 55.71778 | -4.14840 | 21385 ft | 423 kts | 159° |
| 2026-05-05 19:23 | 55.69067 | -4.12783 | 21857 ft | 425 kts | 159° |
| 2026-05-05 19:23 | 55.66341 | -4.10747 | 22340 ft | 427 kts | 160° |
| 2026-05-05 19:23 | 55.63593 | -4.08717 | 22782 ft | 429 kts | 160° |
| 2026-05-05 19:24 | 55.60828 | -4.06686 | 23225 ft | 431 kts | 160° |
| 2026-05-05 19:24 | 55.58052 | -4.04656 | 23652 ft | 433 kts | 160° |
| 2026-05-05 19:24 | 55.55255 | -4.02612 | 24010 ft | 436 kts | 160° |
| 2026-05-05 19:24 | 55.52454 | -4.00562 | 24366 ft | 438 kts | 160° |
| 2026-05-05 19:25 | 55.49633 | -3.98496 | 24711 ft | 439 kts | 160° |
| 2026-05-05 19:25 | 55.46803 | -3.96426 | 25054 ft | 441 kts | 160° |
| 2026-05-05 19:25 | 55.43959 | -3.94351 | 25365 ft | 444 kts | 160° |
| 2026-05-05 19:25 | 55.41099 | -3.92271 | 25698 ft | 446 kts | 160° |
| 2026-05-05 19:26 | 55.38230 | -3.90187 | 26031 ft | 448 kts | 160° |
| 2026-05-05 19:26 | 55.35345 | -3.88097 | 26360 ft | 450 kts | 160° |
| 2026-05-05 19:26 | 55.32447 | -3.85999 | 26695 ft | 451 kts | 160° |
| 2026-05-05 19:26 | 55.29537 | -3.83892 | 27020 ft | 453 kts | 160° |
| 2026-05-05 19:27 | 55.26618 | -3.81779 | 27342 ft | 455 kts | 160° |
| 2026-05-05 19:27 | 55.23690 | -3.79660 | 27757 ft | 454 kts | 160° |
| 2026-05-05 19:27 | 55.20777 | -3.77550 | 28236 ft | 453 kts | 160° |
| 2026-05-05 19:27 | 55.17871 | -3.75449 | 28693 ft | 451 kts | 160° |
| 2026-05-05 19:28 | 55.14974 | -3.73361 | 29165 ft | 450 kts | 160° |
| 2026-05-05 19:28 | 55.12084 | -3.71287 | 29624 ft | 449 kts | 161° |
| 2026-05-05 19:28 | 55.09201 | -3.69226 | 30082 ft | 447 kts | 161° |
| 2026-05-05 19:28 | 55.06321 | -3.67171 | 30487 ft | 446 kts | 161° |
| 2026-05-05 19:29 | 55.03450 | -3.65128 | 30867 ft | 446 kts | 161° |
| 2026-05-05 19:29 | 55.00581 | -3.63088 | 31265 ft | 445 kts | 161° |
| 2026-05-05 19:29 | 54.97717 | -3.61049 | 31641 ft | 445 kts | 161° |
| 2026-05-05 19:29 | 54.94856 | -3.59013 | 32024 ft | 444 kts | 161° |
| 2026-05-05 19:30 | 54.92002 | -3.56987 | 32426 ft | 443 kts | 161° |
| 2026-05-05 19:30 | 54.89183 | -3.54989 | 32816 ft | 442 kts | 161° |
| 2026-05-05 19:30 | 54.86333 | -3.52969 | 33040 ft | 443 kts | 161° |
| 2026-05-05 19:30 | 54.83456 | -3.50934 | 33073 ft | 450 kts | 161° |
| 2026-05-05 19:31 | 54.77619 | -3.46825 | 33067 ft | 456 kts | 161° |
| 2026-05-05 19:31 | 54.71729 | -3.42682 | 33062 ft | 456 kts | 161° |
| 2026-05-05 19:32 | 54.65848 | -3.38564 | 33060 ft | 456 kts | 161° |
| 2026-05-05 19:32 | 54.59961 | -3.34448 | 33055 ft | 456 kts | 161° |
| 2026-05-05 19:33 | 54.54072 | -3.30350 | 33052 ft | 456 kts | 161° |
| 2026-05-05 19:33 | 54.48180 | -3.26272 | 33055 ft | 457 kts | 161° |
| 2026-05-05 19:34 | 54.42283 | -3.22197 | 33043 ft | 457 kts | 161° |
| 2026-05-05 19:35 | 54.33445 | -3.16100 | 33067 ft | 456 kts | 161° |
| 2026-05-05 19:35 | 54.27605 | -3.12088 | 33065 ft | 455 kts | 161° |
| 2026-05-05 19:36 | 54.21685 | -3.08036 | 33070 ft | 455 kts | 161° |
| 2026-05-05 19:36 | 54.15853 | -3.04063 | 33064 ft | 454 kts | 161° |
| 2026-05-05 19:37 | 54.09993 | -3.00078 | 33067 ft | 453 kts | 161° |
| 2026-05-05 19:37 | 54.04139 | -2.96113 | 33060 ft | 453 kts | 161° |
| 2026-05-05 19:38 | 53.98286 | -2.92152 | 33062 ft | 452 kts | 161° |
| 2026-05-05 19:38 | 53.92442 | -2.88218 | 33060 ft | 452 kts | 161° |
| 2026-05-05 19:39 | 53.86597 | -2.84290 | 33050 ft | 452 kts | 161° |
| 2026-05-05 19:39 | 53.80755 | -2.80374 | 33052 ft | 451 kts | 161° |
| 2026-05-05 19:40 | 53.74912 | -2.76477 | 33052 ft | 451 kts | 161° |
| 2026-05-05 19:40 | 53.69067 | -2.72587 | 33031 ft | 452 kts | 161° |
| 2026-05-05 19:41 | 53.63217 | -2.68702 | 33034 ft | 452 kts | 161° |
| 2026-05-05 19:41 | 53.57355 | -2.64827 | 33040 ft | 453 kts | 161° |
| 2026-05-05 19:42 | 53.51488 | -2.60959 | 33045 ft | 453 kts | 161° |
| 2026-05-05 19:42 | 53.45623 | -2.57084 | 33048 ft | 453 kts | 160° |
| 2026-05-05 19:43 | 53.39751 | -2.53234 | 33061 ft | 453 kts | 161° |
| 2026-05-05 19:43 | 53.33877 | -2.49412 | 33062 ft | 453 kts | 161° |
| 2026-05-05 19:44 | 53.28008 | -2.45593 | 33058 ft | 453 kts | 161° |
| 2026-05-05 19:44 | 53.22141 | -2.41776 | 33046 ft | 453 kts | 160° |
| 2026-05-05 19:45 | 53.16305 | -2.37984 | 33034 ft | 453 kts | 160° |
| 2026-05-05 19:45 | 53.10424 | -2.34177 | 33029 ft | 454 kts | 160° |
| 2026-05-05 19:46 | 53.04532 | -2.30383 | 33028 ft | 454 kts | 160° |
| 2026-05-05 19:46 | 52.98636 | -2.26602 | 33018 ft | 454 kts | 160° |
| 2026-05-05 19:47 | 52.92726 | -2.22810 | 33005 ft | 456 kts | 160° |
| 2026-05-05 19:47 | 52.86801 | -2.19025 | 33006 ft | 457 kts | 160° |
| 2026-05-05 19:48 | 52.80864 | -2.15241 | 33017 ft | 457 kts | 160° |
| 2026-05-05 19:48 | 52.74918 | -2.11476 | 33016 ft | 458 kts | 160° |
| 2026-05-05 19:49 | 52.68974 | -2.07708 | 33012 ft | 458 kts | 160° |
| 2026-05-05 19:49 | 52.63007 | -2.03938 | 32787 ft | 459 kts | 160° |
| 2026-05-05 19:49 | 52.60027 | -2.02067 | 32514 ft | 459 kts | 160° |
| 2026-05-05 19:50 | 52.57053 | -2.00204 | 31928 ft | 457 kts | 160° |
| 2026-05-05 19:50 | 52.54081 | -1.98339 | 31177 ft | 455 kts | 161° |
| 2026-05-05 19:50 | 52.51140 | -1.96493 | 30505 ft | 451 kts | 161° |
| 2026-05-05 19:50 | 52.48216 | -1.94660 | 29725 ft | 448 kts | 161° |
| 2026-05-05 19:51 | 52.45305 | -1.92839 | 28775 ft | 448 kts | 161° |
| 2026-05-05 19:51 | 52.42385 | -1.91013 | 27722 ft | 450 kts | 161° |
| 2026-05-05 19:51 | 52.39448 | -1.89179 | 26746 ft | 452 kts | 161° |
| 2026-05-05 19:51 | 52.36525 | -1.87357 | 25995 ft | 447 kts | 161° |
| 2026-05-05 19:52 | 52.33632 | -1.85554 | 25264 ft | 444 kts | 161° |
| 2026-05-05 19:52 | 52.31724 | -1.84367 | 24789 ft | 441 kts | 161° |
| 2026-05-05 19:52 | 52.28866 | -1.82588 | 24098 ft | 438 kts | 161° |
| 2026-05-05 19:52 | 52.26029 | -1.80826 | 23371 ft | 435 kts | 161° |
| 2026-05-05 19:53 | 52.23205 | -1.79080 | 22573 ft | 433 kts | 161° |
| 2026-05-05 19:53 | 52.20400 | -1.77351 | 21844 ft | 429 kts | 161° |
| 2026-05-05 19:53 | 52.17626 | -1.75641 | 21160 ft | 425 kts | 161° |
| 2026-05-05 19:53 | 52.14876 | -1.73948 | 20487 ft | 421 kts | 161° |
| 2026-05-05 19:54 | 52.12148 | -1.72268 | 20070 ft | 418 kts | 160° |
| 2026-05-05 19:54 | 52.09511 | -1.70241 | 20067 ft | 421 kts | 151° |
| 2026-05-05 19:54 | 52.07033 | -1.67677 | 19877 ft | 422 kts | 148° |
| 2026-05-05 19:54 | 52.04560 | -1.65053 | 18896 ft | 427 kts | 148° |
| 2026-05-05 19:55 | 52.02092 | -1.62432 | 18368 ft | 419 kts | 148° |
| 2026-05-05 19:55 | 51.99675 | -1.59867 | 18025 ft | 413 kts | 148° |
| 2026-05-05 19:55 | 51.97274 | -1.57319 | 17667 ft | 411 kts | 148° |
| 2026-05-05 19:55 | 51.94891 | -1.54794 | 17303 ft | 408 kts | 148° |
| 2026-05-05 19:56 | 51.92520 | -1.52285 | 16972 ft | 406 kts | 148° |
| 2026-05-05 19:56 | 51.90159 | -1.49791 | 16630 ft | 404 kts | 148° |
| 2026-05-05 19:56 | 51.87810 | -1.47316 | 16293 ft | 402 kts | 148° |
| 2026-05-05 19:56 | 51.85467 | -1.44851 | 15956 ft | 400 kts | 148° |
| 2026-05-05 19:57 | 51.83137 | -1.42405 | 15628 ft | 398 kts | 148° |
| 2026-05-05 19:57 | 51.80818 | -1.39985 | 15303 ft | 397 kts | 148° |
| 2026-05-05 19:57 | 51.78505 | -1.37577 | 15016 ft | 395 kts | 148° |
| 2026-05-05 19:57 | 51.76192 | -1.35164 | 14964 ft | 395 kts | 148° |
| 2026-05-05 19:58 | 51.73883 | -1.32748 | 14975 ft | 395 kts | 148° |
| 2026-05-05 19:58 | 51.71577 | -1.30330 | 14974 ft | 396 kts | 148° |
| 2026-05-05 19:58 | 51.69267 | -1.27911 | 14971 ft | 396 kts | 148° |
| 2026-05-05 19:58 | 51.66953 | -1.25497 | 14974 ft | 397 kts | 148° |
| 2026-05-05 19:59 | 51.64633 | -1.23086 | 14975 ft | 397 kts | 148° |
| 2026-05-05 19:59 | 51.62312 | -1.20678 | 14975 ft | 397 kts | 148° |
| 2026-05-05 19:59 | 51.59992 | -1.18271 | 14975 ft | 397 kts | 148° |
| 2026-05-05 19:59 | 51.57672 | -1.15870 | 14975 ft | 396 kts | 148° |
| 2026-05-05 20:00 | 51.55353 | -1.13472 | 14971 ft | 397 kts | 148° |
| 2026-05-05 20:00 | 51.53028 | -1.11070 | 14975 ft | 397 kts | 147° |
| 2026-05-05 20:00 | 51.50709 | -1.08677 | 14973 ft | 396 kts | 147° |
| 2026-05-05 20:00 | 51.48396 | -1.06294 | 14972 ft | 395 kts | 147° |
| 2026-05-05 20:01 | 51.46108 | -1.03941 | 14972 ft | 396 kts | 148° |
| 2026-05-05 20:01 | 51.43784 | -1.01553 | 14967 ft | 397 kts | 148° |
| 2026-05-05 20:01 | 51.41459 | -0.99165 | 14966 ft | 398 kts | 148° |
| 2026-05-05 20:01 | 51.39128 | -0.96776 | 14964 ft | 398 kts | 148° |
| 2026-05-05 20:02 | 51.36794 | -0.94389 | 14961 ft | 398 kts | 147° |
| 2026-05-05 20:02 | 51.34464 | -0.92010 | 14957 ft | 397 kts | 147° |
| 2026-05-05 20:02 | 51.32139 | -0.89632 | 14975 ft | 396 kts | 147° |
| 2026-05-05 20:02 | 51.29824 | -0.87266 | 14963 ft | 395 kts | 147° |
| 2026-05-05 20:03 | 51.27514 | -0.84906 | 14154 ft | 398 kts | 147° |
| 2026-05-05 20:03 | 51.25155 | -0.82498 | 13210 ft | 404 kts | 147° |
| 2026-05-05 20:03 | 51.22792 | -0.80088 | 12469 ft | 402 kts | 147° |
| 2026-05-05 20:03 | 51.20440 | -0.77699 | 11824 ft | 397 kts | 147° |
| 2026-05-05 20:04 | 51.18194 | -0.75425 | 11584 ft | 367 kts | 147° |
| 2026-05-05 20:04 | 51.16128 | -0.73334 | 11435 ft | 338 kts | 147° |
| 2026-05-05 20:04 | 51.14215 | -0.71402 | 11262 ft | 315 kts | 147° |
| 2026-05-05 20:04 | 51.12390 | -0.69563 | 10769 ft | 307 kts | 147° |
| 2026-05-05 20:05 | 51.10598 | -0.67760 | 10214 ft | 302 kts | 147° |
| 2026-05-05 20:05 | 51.08857 | -0.66004 | 10112 ft | 297 kts | 147° |
| 2026-05-05 20:05 | 51.07105 | -0.64225 | 10003 ft | 299 kts | 144° |
| 2026-05-05 20:05 | 51.05549 | -0.62045 | 9877 ft | 299 kts | 129° |
| 2026-05-05 20:06 | 51.04396 | -0.59326 | 9740 ft | 296 kts | 115° |
| 2026-05-05 20:06 | 51.03487 | -0.56401 | 9617 ft | 294 kts | 114° |
| 2026-05-05 20:06 | 51.02578 | -0.53487 | 9535 ft | 294 kts | 115° |
| 2026-05-05 20:06 | 51.01667 | -0.50579 | 9421 ft | 294 kts | 115° |
| 2026-05-05 20:07 | 51.00755 | -0.47679 | 9295 ft | 293 kts | 115° |
| 2026-05-05 20:07 | 50.99859 | -0.44825 | 9178 ft | 292 kts | 115° |
| 2026-05-05 20:07 | 50.98952 | -0.41943 | 9057 ft | 292 kts | 115° |
| 2026-05-05 20:07 | 50.98048 | -0.39071 | 8947 ft | 291 kts | 115° |
| 2026-05-05 20:08 | 50.97143 | -0.36205 | 8816 ft | 290 kts | 115° |
| 2026-05-05 20:08 | 50.96240 | -0.33343 | 8697 ft | 290 kts | 115° |
| 2026-05-05 20:08 | 50.95339 | -0.30494 | 8578 ft | 289 kts | 115° |
| 2026-05-05 20:08 | 50.94438 | -0.27652 | 8458 ft | 288 kts | 115° |
| 2026-05-05 20:09 | 50.93537 | -0.24815 | 8337 ft | 288 kts | 115° |
| 2026-05-05 20:09 | 50.92637 | -0.21988 | 8213 ft | 287 kts | 115° |
| 2026-05-05 20:09 | 50.91739 | -0.19170 | 8100 ft | 286 kts | 115° |
| 2026-05-05 20:09 | 50.90844 | -0.16359 | 7978 ft | 283 kts | 115° |
| 2026-05-05 20:10 | 50.89972 | -0.13622 | 7843 ft | 272 kts | 115° |
| 2026-05-05 20:10 | 50.89145 | -0.11029 | 7658 ft | 259 kts | 114° |
| 2026-05-05 20:10 | 50.88404 | -0.08489 | 7515 ft | 249 kts | 103° |
| 2026-05-05 20:10 | 50.88242 | -0.05813 | 7396 ft | 243 kts | 80° |
| 2026-05-05 20:11 | 50.88745 | -0.03303 | 7267 ft | 238 kts | 58° |
| 2026-05-05 20:11 | 50.89796 | -0.01325 | 7156 ft | 234 kts | 36° |
| 2026-05-05 20:11 | 50.91223 | -0.00142 | 7057 ft | 232 kts | 14° |
| 2026-05-05 20:11 | 50.92813 | 0.00101 | 7014 ft | 231 kts | 354° |
| 2026-05-05 20:12 | 50.94349 | -0.00608 | 7010 ft | 232 kts | 333° |
| 2026-05-05 20:12 | 50.95619 | -0.02194 | 7008 ft | 235 kts | 311° |
| 2026-05-05 20:12 | 50.96422 | -0.04463 | 7006 ft | 239 kts | 289° |
| 2026-05-05 20:12 | 50.96816 | -0.06961 | 6963 ft | 227 kts | 285° |
| 2026-05-05 20:13 | 50.97144 | -0.09323 | 6831 ft | 211 kts | 285° |
| 2026-05-05 20:13 | 50.97445 | -0.11536 | 6728 ft | 200 kts | 285° |
| 2026-05-05 20:13 | 50.97734 | -0.13650 | 6514 ft | 195 kts | 285° |
| 2026-05-05 20:13 | 50.98023 | -0.15743 | 6147 ft | 193 kts | 285° |
| 2026-05-05 20:14 | 50.98322 | -0.17813 | 5721 ft | 192 kts | 289° |
| 2026-05-05 20:14 | 50.98836 | -0.19742 | 5318 ft | 189 kts | 303° |
| 2026-05-05 20:14 | 50.99591 | -0.21425 | 4906 ft | 187 kts | 311° |
| 2026-05-05 20:14 | 51.00381 | -0.23057 | 4500 ft | 186 kts | 310° |
| 2026-05-05 20:15 | 51.01168 | -0.24687 | 4092 ft | 186 kts | 310° |
| 2026-05-05 20:15 | 51.01939 | -0.26290 | 3870 ft | 177 kts | 310° |
| 2026-05-05 20:15 | 51.02651 | -0.27776 | 3747 ft | 158 kts | 310° |
| 2026-05-05 20:15 | 51.03293 | -0.29120 | 3478 ft | 150 kts | 310° |
| 2026-05-05 20:16 | 51.03920 | -0.30428 | 3122 ft | 149 kts | 310° |
| 2026-05-05 20:16 | 51.04542 | -0.31725 | 3012 ft | 148 kts | 310° |
| 2026-05-05 20:16 | 51.05172 | -0.33038 | 3017 ft | 150 kts | 310° |
| 2026-05-05 20:16 | 51.05798 | -0.34341 | 3008 ft | 150 kts | 310° |
| 2026-05-05 20:17 | 51.06432 | -0.35661 | 3016 ft | 150 kts | 310° |
| 2026-05-05 20:17 | 51.07064 | -0.36979 | 3006 ft | 150 kts | 310° |
| 2026-05-05 20:17 | 51.07584 | -0.38410 | 3010 ft | 153 kts | 285° |
| 2026-05-05 20:17 | 51.07683 | -0.40104 | 3011 ft | 155 kts | 273° |
| 2026-05-05 20:18 | 51.07679 | -0.41816 | 3009 ft | 155 kts | 271° |
| 2026-05-05 20:18 | 51.07658 | -0.43530 | 3014 ft | 155 kts | 271° |
| 2026-05-05 20:18 | 51.07637 | -0.45244 | 3013 ft | 155 kts | 271° |
| 2026-05-05 20:18 | 51.07618 | -0.46962 | 3014 ft | 155 kts | 271° |
| 2026-05-05 20:19 | 51.07597 | -0.48680 | 3006 ft | 155 kts | 271° |
| 2026-05-05 20:19 | 51.07583 | -0.50396 | 3014 ft | 155 kts | 275° |
| 2026-05-05 20:19 | 51.07926 | -0.51967 | 3004 ft | 151 kts | 310° |
| 2026-05-05 20:19 | 51.08771 | -0.52856 | 3004 ft | 147 kts | 351° |
| 2026-05-05 20:20 | 51.09745 | -0.52577 | 3009 ft | 146 kts | 33° |
| 2026-05-05 20:20 | 51.10309 | -0.51284 | 3004 ft | 147 kts | 76° |
| 2026-05-05 20:20 | 51.10502 | -0.49683 | 3021 ft | 147 kts | 75° |
| 2026-05-05 20:20 | 51.10740 | -0.48105 | 3011 ft | 147 kts | 75° |
| 2026-05-05 20:21 | 51.10971 | -0.46524 | 3004 ft | 144 kts | 75° |
| 2026-05-05 20:21 | 51.11189 | -0.45002 | 3002 ft | 140 kts | 75° |
| 2026-05-05 20:21 | 51.11398 | -0.43523 | 2993 ft | 138 kts | 75° |
| 2026-05-05 20:21 | 51.11609 | -0.42032 | 2886 ft | 138 kts | 75° |
| 2026-05-05 20:22 | 51.11817 | -0.40548 | 2731 ft | 137 kts | 76° |
| 2026-05-05 20:22 | 51.12025 | -0.39069 | 2561 ft | 137 kts | 76° |
| 2026-05-05 20:22 | 51.12231 | -0.37595 | 2389 ft | 137 kts | 76° |
| 2026-05-05 20:22 | 51.12442 | -0.36090 | 2195 ft | 140 kts | 77° |
| 2026-05-05 20:23 | 51.12652 | -0.34579 | 1981 ft | 139 kts | 77° |
| 2026-05-05 20:23 | 51.12860 | -0.33080 | 1798 ft | 139 kts | 77° |
| 2026-05-05 20:23 | 51.13071 | -0.31585 | 1626 ft | 138 kts | 78° |
| 2026-05-05 20:23 | 51.13278 | -0.30097 | 1439 ft | 137 kts | 78° |
| 2026-05-05 20:24 | 51.13488 | -0.28615 | 1245 ft | 137 kts | 77° |
| 2026-05-05 20:24 | 51.13695 | -0.27128 | 1045 ft | 138 kts | 77° |
| 2026-05-05 20:24 | 51.13900 | -0.25612 | 857 ft | 144 kts | 77° |
| 2026-05-05 20:24 | 51.14129 | -0.24053 | 663 ft | 146 kts | 77° |
| 2026-05-05 20:25 | 51.14344 | -0.22503 | 455 ft | 140 kts | 78° |
| 2026-05-05 20:25 | 51.14541 | -0.21033 | 292 ft | 132 kts | 77° |
| 2026-05-05 20:25 | 51.14732 | -0.19680 | 212 ft | 111 kts | 80° |
| 2026-05-05 20:25 | 51.14857 | -0.18741 | 210 ft | 62 kts | 77° |
| 2026-05-05 20:26 | 51.14930 | -0.18212 | 211 ft | 46 kts | 78° |
| 2026-05-05 20:26 | 51.15048 | -0.17820 | 208 ft | 25 kts | 46° |
| 2026-05-05 20:26 | 51.15118 | -0.17762 | 206 ft | 0 kts | 1° |
| 2026-05-05 20:27 | 51.15119 | -0.17762 | 206 ft | 0 kts | 1° |
| 2026-05-05 20:27 | 51.15136 | -0.17762 | 193 ft | 9 kts | 2° |
| 2026-05-05 20:27 | 51.15187 | -0.17672 | 209 ft | 13 kts | 75° |
| 2026-05-05 20:28 | 51.15209 | -0.17518 | 207 ft | 15 kts | 77° |
| 2026-05-05 20:28 | 51.15233 | -0.17340 | 215 ft | 17 kts | 78° |
| 2026-05-05 20:28 | 51.15259 | -0.17139 | 214 ft | 20 kts | 77° |
| 2026-05-05 20:28 | 51.15292 | -0.16915 | 212 ft | 22 kts | 77° |
| 2026-05-05 20:29 | 51.15317 | -0.16735 | 213 ft | 13 kts | 71° |
| 2026-05-05 20:29 | 51.15358 | -0.16590 | 205 ft | 16 kts | 77° |
| 2026-05-05 20:29 | 51.15382 | -0.16499 | 208 ft | 7 kts | 45° |
| 2026-05-05 20:29 | 51.15403 | -0.16421 | 211 ft | 4 kts | 76° |
| 2026-05-05 20:30 | 51.15403 | -0.16419 | 212 ft | 0 kts | 76° |